Time;durP1;ratioP1;P1;durP2;ratioP2;P2;SDS_P1;SDS_P2;PMS_P1;PMS_P2;Temp;Humidity;BMP_temperature;BMP_pressure;BME280_temperature;BME280_humidity;BME280_pressure;Samples;Min_cycle;Max_cycle;Signal;HPM_P1;HPM_P2
2021/04/25 00:02:19;;;;;;;12.90;7.83;;;;;;;;;;5088190;28;20229;-80
2021/04/25 00:04:48;;;;;;;14.77;9.93;;;;;;;;;;5076148;28;20603;-81
2021/04/25 00:07:16;;;;;;;9.03;5.60;;;;;;;;;;5076189;28;20572;-81
2021/04/25 00:09:44;;;;;;;9.20;5.80;;;;;;;;;;5073160;28;20231;-78
2021/04/25 00:12:11;;;;;;;9.37;5.30;;;;;;;;;;5068260;28;20215;-79
2021/04/25 00:14:39;;;;;;;6.90;5.30;;;;;;;;;;5063090;28;20226;-79
2021/04/25 00:17:07;;;;;;;9.40;5.30;;;;;;;;;;5065840;28;20225;-78
2021/04/25 00:19:34;;;;;;;28.83;5.87;;;;;;;;;;5077207;28;20230;-79
2021/04/25 00:22:02;;;;;;;7.67;5.17;;;;;;;;;;5095036;27;20227;-79
2021/04/25 00:24:31;;;;;;;8.83;5.03;;;;;;;;;;5110565;28;20221;-79
2021/04/25 00:26:58;;;;;;;9.43;5.00;;;;;;;;;;5083649;28;20214;-82
2021/04/25 00:29:26;;;;;;;6.57;5.03;;;;;;;;;;5105101;28;20732;-79
2021/04/25 00:31:59;;;;;;;10.17;6.43;;;;;;;;;;5088094;27;20223;-81
2021/04/25 00:34:26;;;;;;;17.23;7.77;;;;;;;;;;5106393;27;20214;-80
2021/04/25 00:37:08;;;;;;;10.33;5.83;;;;;;;;;;5082188;27;20596;-78
2021/04/25 00:39:36;;;;;;;10.17;6.40;;;;;;;;;;5078223;28;20232;-77
2021/04/25 00:42:05;;;;;;;11.07;5.90;;;;;;;;;;5095479;28;20329;-78
2021/04/25 00:44:32;;;;;;;9.30;5.80;;;;;;;;;;5095924;28;20225;-79
2021/04/25 00:47:00;;;;;;;8.63;5.63;;;;;;;;;;5091111;27;20231;-80
2021/04/25 00:49:28;;;;;;;8.77;5.87;;;;;;;;;;5080525;28;20233;-80
2021/04/25 00:52:00;;;;;;;8.63;5.67;;;;;;;;;;5073403;28;20727;-80
2021/04/25 00:54:28;;;;;;;10.33;5.90;;;;;;;;;;5092480;28;20281;-79
2021/04/25 00:56:58;;;;;;;8.53;5.33;;;;;;;;;;5095061;27;20236;-80
2021/04/25 00:59:27;;;;;;;10.47;5.60;;;;;;;;;;5101969;28;20242;-79
2021/04/25 01:01:54;;;;;;;9.60;5.87;;;;;;;;;;5072319;28;20233;-80
2021/04/25 01:04:22;;;;;;;8.97;5.30;;;;;;;;;;5072538;28;20230;-79
2021/04/25 01:06:50;;;;;;;9.63;5.40;;;;;;;;;;5094089;27;20225;-79
2021/04/25 01:09:17;;;;;;;9.03;5.97;;;;;;;;;;5093553;28;20225;-79
2021/04/25 01:11:45;;;;;;;10.13;5.47;;;;;;;;;;5110445;28;20225;-79
2021/04/25 01:14:13;;;;;;;10.40;5.33;;;;;;;;;;5091834;27;20229;-79
2021/04/25 01:16:41;;;;;;;10.73;5.67;;;;;;;;;;5103466;28;20251;-80
2021/04/25 01:19:09;;;;;;;10.10;6.00;;;;;;;;;;5093593;28;20583;-79
2021/04/25 01:21:37;;;;;;;9.83;5.27;;;;;;;;;;5114978;28;20248;-79
2021/04/25 01:24:06;;;;;;;8.77;5.33;;;;;;;;;;5090357;28;20232;-79
2021/04/25 01:26:34;;;;;;;10.07;5.60;;;;;;;;;;5076257;28;20595;-82
2021/04/25 01:29:03;;;;;;;11.53;5.83;;;;;;;;;;5101634;27;20218;-80
2021/04/25 01:31:30;;;;;;;9.10;5.47;;;;;;;;;;5093489;28;20237;-81
2021/04/25 01:33:59;;;;;;;8.60;5.47;;;;;;;;;;5094088;27;20229;-79
2021/04/25 01:36:26;;;;;;;8.27;4.70;;;;;;;;;;5095944;28;20225;-81
2021/04/25 01:38:58;;;;;;;7.87;5.30;;;;;;;;;;5100149;28;20222;-81
2021/04/25 01:41:25;;;;;;;8.83;5.57;;;;;;;;;;5092855;28;20241;-79
2021/04/25 01:43:53;;;;;;;11.40;5.33;;;;;;;;;;5093601;28;20226;-81
2021/04/25 01:46:22;;;;;;;7.63;4.73;;;;;;;;;;5131713;27;20235;-80
2021/04/25 01:48:55;;;;;;;9.80;5.37;;;;;;;;;;5116499;28;20225;-81
2021/04/25 01:51:22;;;;;;;8.70;5.20;;;;;;;;;;5118821;27;20403;-80
2021/04/25 01:53:50;;;;;;;9.70;5.07;;;;;;;;;;5088394;28;20232;-81
2021/04/25 01:56:19;;;;;;;12.03;6.17;;;;;;;;;;5103844;27;20619;-81
2021/04/25 01:58:47;;;;;;;8.40;5.97;;;;;;;;;;5102532;28;20237;-80
2021/04/25 02:01:14;;;;;;;8.70;5.00;;;;;;;;;;5106217;27;20222;-79
2021/04/25 02:03:42;;;;;;;10.20;5.83;;;;;;;;;;5117707;28;20220;-79
2021/04/25 02:06:10;;;;;;;9.60;5.00;;;;;;;;;;5114633;28;20231;-80
2021/04/25 02:08:38;;;;;;;8.97;5.80;;;;;;;;;;5112559;28;20237;-82
2021/04/25 02:11:05;;;;;;;9.13;5.33;;;;;;;;;;5108234;28;20220;-80
2021/04/25 02:13:34;;;;;;;9.67;5.20;;;;;;;;;;5103021;28;20659;-83
2021/04/25 02:16:01;;;;;;;8.93;4.83;;;;;;;;;;5111937;28;20222;-79
2021/04/25 02:18:29;;;;;;;10.73;5.07;;;;;;;;;;5102074;27;20702;-79
2021/04/25 02:20:56;;;;;;;8.73;6.00;;;;;;;;;;5080395;27;20229;-79
2021/04/25 02:23:24;;;;;;;9.50;5.17;;;;;;;;;;5112325;28;20229;-79
2021/04/25 02:25:52;;;;;;;12.83;5.53;;;;;;;;;;5110229;28;20229;-80
2021/04/25 02:28:20;;;;;;;11.93;5.17;;;;;;;;;;5104456;27;20217;-79
2021/04/25 02:30:49;;;;;;;11.10;5.80;;;;;;;;;;5082030;28;20233;-80
2021/04/25 02:33:16;;;;;;;8.90;5.23;;;;;;;;;;5095826;28;20225;-80
2021/04/25 02:35:44;;;;;;;11.80;5.33;;;;;;;;;;5085949;28;20220;-79
2021/04/25 02:38:12;;;;;;;11.73;6.07;;;;;;;;;;5099904;27;20588;-79
2021/04/25 02:40:40;;;;;;;10.50;4.73;;;;;;;;;;5090796;28;20224;-79
2021/04/25 02:43:07;;;;;;;9.10;6.00;;;;;;;;;;5090051;28;20421;-79
2021/04/25 02:45:35;;;;;;;7.20;5.03;;;;;;;;;;5097485;28;20217;-79
2021/04/25 02:48:06;;;;;;;8.53;4.83;;;;;;;;;;5092466;27;20584;-79
2021/04/25 02:50:36;;;;;;;10.70;5.00;;;;;;;;;;5115314;27;20229;-80
2021/04/25 02:53:03;;;;;;;9.90;5.60;;;;;;;;;;5108806;27;20229;-79
2021/04/25 02:55:31;;;;;;;9.27;5.13;;;;;;;;;;5074817;28;20222;-78
2021/04/25 02:57:59;;;;;;;7.57;4.80;;;;;;;;;;5094669;28;20233;-79
2021/04/25 03:00:28;;;;;;;10.00;5.27;;;;;;;;;;5076905;28;20259;-77
2021/04/25 03:02:56;;;;;;;10.77;5.50;;;;;;;;;;5087427;28;20244;-79
2021/04/25 03:05:25;;;;;;;9.53;5.07;;;;;;;;;;5085926;28;20232;-79
2021/04/25 03:07:54;;;;;;;10.50;4.77;;;;;;;;;;5066127;28;20229;-81
2021/04/25 03:10:22;;;;;;;8.43;5.03;;;;;;;;;;5082466;28;20245;-81
2021/04/25 03:12:50;;;;;;;15.23;5.50;;;;;;;;;;5067943;28;20628;-79
2021/04/25 03:15:19;;;;;;;8.57;5.03;;;;;;;;;;5084680;28;20269;-79
2021/04/25 03:17:47;;;;;;;12.77;5.33;;;;;;;;;;5086888;28;20244;-82
2021/04/25 03:20:16;;;;;;;9.40;4.73;;;;;;;;;;5073350;28;20231;-79
2021/04/25 03:22:45;;;;;;;13.93;5.40;;;;;;;;;;5093209;28;20346;-80
2021/04/25 03:25:13;;;;;;;9.97;5.30;;;;;;;;;;5070846;28;20231;-81
2021/04/25 03:27:41;;;;;;;14.30;5.20;;;;;;;;;;5097448;28;20566;-79
2021/04/25 03:30:11;;;;;;;9.43;5.10;;;;;;;;;;5086942;28;20234;-81
2021/04/25 03:32:38;;;;;;;7.63;4.90;;;;;;;;;;5082550;28;20236;-80
2021/04/25 03:35:08;;;;;;;8.37;5.13;;;;;;;;;;5091558;28;20236;-80
2021/04/25 03:37:37;;;;;;;9.40;5.07;;;;;;;;;;5083165;28;20225;-79
2021/04/25 03:40:08;;;;;;;8.63;5.10;;;;;;;;;;5094864;28;20225;-80
2021/04/25 03:42:36;;;;;;;9.97;5.63;;;;;;;;;;5088826;28;20236;-80
2021/04/25 03:45:04;;;;;;;9.73;4.97;;;;;;;;;;5085011;27;20225;-79
2021/04/25 03:47:32;;;;;;;8.83;4.80;;;;;;;;;;5095941;27;20224;-79
2021/04/25 03:50:00;;;;;;;9.93;4.80;;;;;;;;;;5090650;27;20233;-79
2021/04/25 03:52:27;;;;;;;8.77;4.87;;;;;;;;;;5080313;28;20230;-79
2021/04/25 03:54:55;;;;;;;7.47;4.77;;;;;;;;;;5074805;28;20595;-79
2021/04/25 03:57:23;;;;;;;8.57;5.50;;;;;;;;;;5109533;28;20233;-79
2021/04/25 03:59:51;;;;;;;10.10;5.47;;;;;;;;;;5082311;28;20714;-79
2021/04/25 04:02:18;;;;;;;7.70;4.67;;;;;;;;;;5110305;27;20227;-78
2021/04/25 04:04:46;;;;;;;9.40;5.03;;;;;;;;;;5088765;28;20233;-79
2021/04/25 04:07:14;;;;;;;11.13;5.43;;;;;;;;;;5113826;27;20236;-79
2021/04/25 04:09:41;;;;;;;12.33;5.43;;;;;;;;;;5096825;28;20233;-79
2021/04/25 04:12:09;;;;;;;7.20;5.13;;;;;;;;;;5112044;27;20232;-79
2021/04/25 04:14:37;;;;;;;9.53;5.00;;;;;;;;;;5092680;28;20233;-78
2021/04/25 04:17:05;;;;;;;7.10;4.53;;;;;;;;;;5106648;27;20235;-79
2021/04/25 04:19:33;;;;;;;6.53;4.47;;;;;;;;;;5091922;28;20235;-79
2021/04/25 04:22:00;;;;;;;9.93;5.37;;;;;;;;;;5090422;27;20225;-80
2021/04/25 04:24:28;;;;;;;7.87;4.53;;;;;;;;;;5107734;28;20231;-81
2021/04/25 04:26:56;;;;;;;9.73;5.20;;;;;;;;;;5124672;27;20683;-79
2021/04/25 04:29:24;;;;;;;10.73;4.90;;;;;;;;;;5088820;28;20221;-78
2021/04/25 04:31:52;;;;;;;6.63;5.17;;;;;;;;;;5103349;28;20236;-79
2021/04/25 04:34:20;;;;;;;7.93;5.10;;;;;;;;;;5096154;28;20221;-80
2021/04/25 04:36:48;;;;;;;10.27;4.67;;;;;;;;;;5076874;28;20252;-80
2021/04/25 04:39:15;;;;;;;13.40;5.63;;;;;;;;;;5099491;27;20240;-79
2021/04/25 04:41:43;;;;;;;10.00;4.73;;;;;;;;;;5086598;28;20243;-79
2021/04/25 04:44:11;;;;;;;9.07;5.20;;;;;;;;;;5078149;27;20221;-82
2021/04/25 04:46:38;;;;;;;9.80;4.80;;;;;;;;;;5100923;28;20496;-80
2021/04/25 04:49:07;;;;;;;9.07;4.80;;;;;;;;;;5101387;27;20244;-79
2021/04/25 04:51:35;;;;;;;8.90;5.10;;;;;;;;;;5086154;28;20225;-81
2021/04/25 04:54:03;;;;;;;9.73;4.90;;;;;;;;;;5102758;28;20249;-80
2021/04/25 04:56:31;;;;;;;8.10;5.10;;;;;;;;;;5078752;28;20234;-79
2021/04/25 04:58:58;;;;;;;7.67;5.10;;;;;;;;;;5104257;27;20236;-80
2021/04/25 05:01:26;;;;;;;9.93;4.90;;;;;;;;;;5114002;28;20255;-79
2021/04/25 05:03:53;;;;;;;7.97;4.27;;;;;;;;;;5115733;28;20229;-82
2021/04/25 05:06:23;;;;;;;8.60;4.63;;;;;;;;;;5074240;28;20218;-80
2021/04/25 05:08:50;;;;;;;11.47;5.10;;;;;;;;;;5091687;28;20229;-80
2021/04/25 05:11:18;;;;;;;8.50;4.90;;;;;;;;;;5115660;27;20227;-81
2021/04/25 05:13:46;;;;;;;9.10;5.10;;;;;;;;;;5094936;28;20225;-80
2021/04/25 05:16:14;;;;;;;7.97;4.40;;;;;;;;;;5088462;28;20305;-79
2021/04/25 05:18:42;;;;;;;8.40;4.63;;;;;;;;;;5109006;28;20233;-79
2021/04/25 05:21:10;;;;;;;10.83;5.33;;;;;;;;;;5092110;27;20227;-80
2021/04/25 05:23:39;;;;;;;6.57;4.30;;;;;;;;;;5120627;28;20236;-81
2021/04/25 05:26:06;;;;;;;8.23;5.30;;;;;;;;;;5091033;27;20223;-78
2021/04/25 05:28:34;;;;;;;7.20;4.70;;;;;;;;;;5110687;28;20243;-79
2021/04/25 05:31:02;;;;;;;6.97;5.00;;;;;;;;;;5107881;28;20232;-79
2021/04/25 05:33:30;;;;;;;9.57;5.53;;;;;;;;;;5074501;28;20783;-80
2021/04/25 05:35:57;;;;;;;8.83;4.70;;;;;;;;;;5103847;28;20237;-79
2021/04/25 05:38:25;;;;;;;9.00;5.23;;;;;;;;;;5108334;28;20239;-79
2021/04/25 05:40:54;;;;;;;10.33;4.20;;;;;;;;;;5119712;27;20240;-79
2021/04/25 05:43:21;;;;;;;7.67;4.33;;;;;;;;;;5108015;28;20246;-79
2021/04/25 05:45:49;;;;;;;11.10;5.30;;;;;;;;;;5083446;28;20225;-79
2021/04/25 05:48:16;;;;;;;10.13;4.33;;;;;;;;;;5084488;28;20222;-81
2021/04/25 05:50:44;;;;;;;7.40;4.43;;;;;;;;;;5103613;28;20235;-79
2021/04/25 05:53:12;;;;;;;7.90;4.83;;;;;;;;;;5078478;28;20225;-79
2021/04/25 05:55:39;;;;;;;8.40;4.33;;;;;;;;;;5106349;28;20222;-79
2021/04/25 05:58:07;;;;;;;8.83;5.03;;;;;;;;;;5087766;28;20233;-79
2021/04/25 06:00:38;;;;;;;10.67;4.43;;;;;;;;;;5075441;28;20225;-79
2021/04/25 06:03:08;;;;;;;7.97;4.60;;;;;;;;;;5108177;27;21386;-79
2021/04/25 06:05:36;;;;;;;8.50;4.60;;;;;;;;;;5086648;28;20210;-81
2021/04/25 06:08:04;;;;;;;8.27;4.97;;;;;;;;;;5130524;27;20213;-81
2021/04/25 06:10:32;;;;;;;9.53;4.87;;;;;;;;;;5094359;28;20241;-83
2021/04/25 06:12:59;;;;;;;7.57;4.67;;;;;;;;;;5101680;28;20222;-81
2021/04/25 06:15:28;;;;;;;8.77;4.40;;;;;;;;;;5106118;28;20222;-81
2021/04/25 06:17:57;;;;;;;6.40;4.53;;;;;;;;;;5114835;27;20237;-81
2021/04/25 06:20:25;;;;;;;9.53;5.03;;;;;;;;;;5110577;28;20220;-81
2021/04/25 06:22:52;;;;;;;6.60;4.27;;;;;;;;;;5124358;28;21081;-82
2021/04/25 06:25:20;;;;;;;10.13;5.67;;;;;;;;;;5125951;28;20220;-81
2021/04/25 06:27:48;;;;;;;8.70;5.17;;;;;;;;;;5089619;28;20232;-82
2021/04/25 06:30:17;;;;;;;7.40;4.50;;;;;;;;;;5091835;28;20234;-81
2021/04/25 06:32:46;;;;;;;9.40;4.60;;;;;;;;;;5099209;28;20215;-80
2021/04/25 06:35:15;;;;;;;11.80;4.97;;;;;;;;;;5066976;28;20232;-80
2021/04/25 06:37:45;;;;;;;12.90;5.50;;;;;;;;;;5085541;28;20604;-82
2021/04/25 06:40:14;;;;;;;8.93;5.27;;;;;;;;;;5089593;27;20229;-83
2021/04/25 06:42:42;;;;;;;10.97;5.33;;;;;;;;;;5103518;27;20233;-80
2021/04/25 06:45:11;;;;;;;8.23;4.80;;;;;;;;;;5107460;27;20699;-80
2021/04/25 06:47:39;;;;;;;10.00;5.40;;;;;;;;;;5104602;27;20225;-81
2021/04/25 06:50:11;;;;;;;10.10;5.50;;;;;;;;;;5086858;28;20232;-85
2021/04/25 06:52:39;;;;;;;8.40;5.43;;;;;;;;;;5086625;28;20698;-84
2021/04/25 06:55:09;;;;;;;7.87;5.20;;;;;;;;;;5085370;28;20218;-80
2021/04/25 06:57:37;;;;;;;7.43;5.13;;;;;;;;;;5087345;28;20687;-81
2021/04/25 07:00:06;;;;;;;8.47;4.73;;;;;;;;;;5060415;28;20233;-80
2021/04/25 07:02:43;;;;;;;8.53;4.83;;;;;;;;;;5074315;28;20226;-79
2021/04/25 07:05:13;;;;;;;8.17;5.10;;;;;;;;;;5063421;28;20226;-79
2021/04/25 07:07:40;;;;;;;10.53;5.90;;;;;;;;;;5058844;28;20211;-80
2021/04/25 07:10:09;;;;;;;9.70;5.40;;;;;;;;;;5090132;28;20252;-79
2021/04/25 07:12:37;;;;;;;11.10;5.63;;;;;;;;;;5091332;27;20706;-81
2021/04/25 07:15:06;;;;;;;15.40;5.30;;;;;;;;;;5098833;27;20225;-81
2021/04/25 07:17:34;;;;;;;10.83;5.63;;;;;;;;;;5092749;27;20235;-82
2021/04/25 07:20:01;;;;;;;12.23;6.17;;;;;;;;;;5105675;27;20236;-79
2021/04/25 07:22:30;;;;;;;9.43;5.80;;;;;;;;;;5084972;28;20688;-79
2021/04/25 07:24:58;;;;;;;11.40;5.93;;;;;;;;;;5102196;27;20225;-80
2021/04/25 07:27:25;;;;;;;8.90;5.63;;;;;;;;;;5087861;28;20225;-80
2021/04/25 07:29:58;;;;;;;9.43;5.83;;;;;;;;;;5099386;28;20263;-80
2021/04/25 07:32:26;;;;;;;10.93;6.00;;;;;;;;;;5090835;28;20228;-80
2021/04/25 07:34:54;;;;;;;9.90;5.70;;;;;;;;;;5108834;28;20604;-79
2021/04/25 07:37:22;;;;;;;11.00;6.23;;;;;;;;;;5062442;28;20219;-82
2021/04/25 07:39:50;;;;;;;10.00;6.17;;;;;;;;;;5083234;28;20604;-82
2021/04/25 07:42:18;;;;;;;13.30;6.27;;;;;;;;;;5087102;28;20228;-79
2021/04/25 07:44:46;;;;;;;8.07;5.90;;;;;;;;;;5083808;28;20227;-81
2021/04/25 07:47:14;;;;;;;9.33;5.73;;;;;;;;;;5071146;28;20583;-81
2021/04/25 07:49:41;;;;;;;10.53;6.43;;;;;;;;;;5081734;28;20230;-79
2021/04/25 07:52:09;;;;;;;13.17;6.97;;;;;;;;;;5072977;28;20229;-79
2021/04/25 07:54:36;;;;;;;10.20;7.53;;;;;;;;;;5084591;28;21910;-81
2021/04/25 07:57:06;;;;;;;9.37;6.30;;;;;;;;;;5100486;27;20714;-81
2021/04/25 07:59:33;;;;;;;10.73;6.70;;;;;;;;;;5107580;28;20229;-79
2021/04/25 08:02:01;;;;;;;10.63;7.07;;;;;;;;;;5088132;27;20230;-79
2021/04/25 08:04:28;;;;;;;11.60;7.60;;;;;;;;;;5108418;27;20737;-78
2021/04/25 08:06:56;;;;;;;14.97;7.57;;;;;;;;;;5089056;28;20214;-81
2021/04/25 08:09:24;;;;;;;9.90;7.20;;;;;;;;;;5110235;27;20706;-81
2021/04/25 08:11:51;;;;;;;10.20;6.90;;;;;;;;;;5072754;28;20544;-79
2021/04/25 08:14:20;;;;;;;13.23;7.27;;;;;;;;;;5063994;27;20222;-81
2021/04/25 08:16:47;;;;;;;12.83;7.80;;;;;;;;;;5101239;28;20217;-80
2021/04/25 08:19:15;;;;;;;12.93;7.80;;;;;;;;;;5103274;27;20244;-80
2021/04/25 08:21:43;;;;;;;13.33;7.23;;;;;;;;;;5106879;27;20225;-79
2021/04/25 08:24:11;;;;;;;11.17;7.13;;;;;;;;;;5082562;28;20226;-80
2021/04/25 08:26:40;;;;;;;10.50;7.10;;;;;;;;;;5092643;28;20226;-81
2021/04/25 08:29:07;;;;;;;10.00;7.20;;;;;;;;;;5091719;27;20236;-79
2021/04/25 08:31:37;;;;;;;12.13;8.03;;;;;;;;;;5108893;27;20699;-80
2021/04/25 08:34:05;;;;;;;12.37;7.80;;;;;;;;;;5084735;28;20219;-79
2021/04/25 08:36:33;;;;;;;12.53;8.20;;;;;;;;;;5074142;28;20218;-79
2021/04/25 08:39:00;;;;;;;13.67;7.60;;;;;;;;;;5075343;28;20238;-80
2021/04/25 08:41:29;;;;;;;10.30;7.47;;;;;;;;;;5086706;28;20620;-79
2021/04/25 08:44:01;;;;;;;14.30;8.03;;;;;;;;;;5089117;28;20229;-80
2021/04/25 08:46:30;;;;;;;10.53;7.57;;;;;;;;;;5074978;28;20233;-79
2021/04/25 08:48:59;;;;;;;14.80;8.47;;;;;;;;;;5085097;28;20544;-80
2021/04/25 08:51:27;;;;;;;11.83;7.93;;;;;;;;;;5103225;27;20718;-79
2021/04/25 08:53:55;;;;;;;13.23;7.83;;;;;;;;;;5082352;27;20729;-79
2021/04/25 08:56:33;;;;;;;16.50;8.50;;;;;;;;;;5100897;27;20578;-81
2021/04/25 08:59:00;;;;;;;12.53;7.67;;;;;;;;;;5088201;27;20226;-80
2021/04/25 09:01:28;;;;;;;11.87;8.73;;;;;;;;;;5071384;28;20233;-78
2021/04/25 09:03:56;;;;;;;12.60;8.60;;;;;;;;;;5107013;27;20318;-78
2021/04/25 09:06:25;;;;;;;12.93;8.53;;;;;;;;;;5109008;28;20232;-78
2021/04/25 09:08:57;;;;;;;13.10;7.87;;;;;;;;;;5109443;27;20217;-81
2021/04/25 09:11:30;;;;;;;12.03;8.73;;;;;;;;;;5094926;28;20430;-79
2021/04/25 09:14:20;;;;;;;12.13;9.23;;;;;;;;;;5082830;27;20218;-79
2021/04/25 09:16:58;;;;;;;13.87;9.20;;;;;;;;;;5087649;28;20240;-81
2021/04/25 09:19:26;;;;;;;12.77;9.27;;;;;;;;;;5106281;28;20233;-80
2021/04/25 09:21:56;;;;;;;14.17;9.50;;;;;;;;;;5086514;28;20225;-78
2021/04/25 09:24:26;;;;;;;15.73;9.50;;;;;;;;;;5089867;28;20225;-80
2021/04/25 09:26:54;;;;;;;15.57;9.77;;;;;;;;;;5101292;28;20229;-78
2021/04/25 09:29:22;;;;;;;11.40;8.70;;;;;;;;;;5103690;27;20226;-78
2021/04/25 09:31:51;;;;;;;16.67;11.83;;;;;;;;;;5083053;28;20225;-81
2021/04/25 09:34:26;;;;;;;15.30;10.27;;;;;;;;;;5086509;28;20600;-79
2021/04/25 09:37:13;;;;;;;14.03;9.37;;;;;;;;;;5069808;27;20229;-79
2021/04/25 09:39:58;;;;;;;13.77;10.13;;;;;;;;;;5073459;28;20242;-80
2021/04/25 09:42:27;;;;;;;13.87;9.90;;;;;;;;;;5106957;27;20214;-79
2021/04/25 09:44:54;;;;;;;16.57;10.63;;;;;;;;;;5103972;28;20241;-78
2021/04/25 09:47:30;;;;;;;13.03;10.20;;;;;;;;;;5071045;28;20230;-78
2021/04/25 09:50:00;;;;;;;15.50;9.60;;;;;;;;;;5077517;28;20229;-79
2021/04/25 09:52:37;;;;;;;15.47;10.97;;;;;;;;;;5059834;28;20231;-79
2021/04/25 09:55:14;;;;;;;14.90;10.53;;;;;;;;;;5105113;27;20240;-80
2021/04/25 09:57:46;;;;;;;14.70;10.43;;;;;;;;;;5107132;28;20223;-79
2021/04/25 10:00:14;;;;;;;14.23;10.43;;;;;;;;;;5110531;27;20244;-78
2021/04/25 10:03:10;;;;;;;16.30;11.23;;;;;;;;;;5088141;28;20226;-80
2021/04/25 10:05:39;;;;;;;15.17;10.60;;;;;;;;;;5038693;28;20222;-81
2021/04/25 10:08:07;;;;;;;16.07;10.73;;;;;;;;;;5091777;27;20198;-79
2021/04/25 10:10:49;;;;;;;14.83;11.40;;;;;;;;;;5098202;28;20226;-81
2021/04/25 10:13:17;;;;;;;13.60;10.23;;;;;;;;;;5112741;27;20225;-79
2021/04/25 10:15:44;;;;;;;15.70;10.90;;;;;;;;;;5109695;28;20218;-78
2021/04/25 10:18:12;;;;;;;14.75;10.40;;;;;;;;;;5073101;28;20229;-78
2021/04/25 10:20:39;;;;;;;15.10;11.33;;;;;;;;;;5069974;28;20544;-78
2021/04/25 10:23:08;;;;;;;14.00;11.17;;;;;;;;;;5083148;28;20607;-78
2021/04/25 10:25:37;;;;;;;16.40;11.40;;;;;;;;;;5095938;27;20722;-78
2021/04/25 10:28:09;;;;;;;14.47;11.73;;;;;;;;;;5108907;27;20226;-79
2021/04/25 10:30:39;;;;;;;14.57;10.82;;;;;;;;;;5102601;28;20222;-77
2021/04/25 10:33:07;;;;;;;15.10;10.82;;;;;;;;;;5099982;27;20232;-78
2021/04/25 10:35:35;;;;;;;15.02;11.75;;;;;;;;;;5084203;28;20221;-78
2021/04/25 10:38:04;;;;;;;15.85;12.10;;;;;;;;;;5117532;27;20240;-78
2021/04/25 10:40:34;;;;;;;16.45;13.10;;;;;;;;;;5109204;28;20240;-77
2021/04/25 10:43:07;;;;;;;17.30;13.05;;;;;;;;;;5091278;27;20244;-78
2021/04/25 10:45:36;;;;;;;16.45;12.18;;;;;;;;;;5103115;28;20228;-78
2021/04/25 10:48:24;;;;;;;17.48;13.20;;;;;;;;;;5107322;27;20244;-78
2021/04/25 10:51:13;;;;;;;15.15;12.73;;;;;;;;;;5104558;27;20244;-78
2021/04/25 10:53:43;;;;;;;15.10;12.20;;;;;;;;;;5091330;28;20217;-78
2021/04/25 10:56:24;;;;;;;13.32;11.73;;;;;;;;;;5083994;28;20236;-78
2021/04/25 10:59:29;;;;;;;18.23;13.85;;;;;;;;;;5105947;28;20648;-78
2021/04/25 11:01:58;;;;;;;13.88;12.13;;;;;;;;;;5098461;27;20232;-78
2021/04/25 11:05:07;;;;;;;16.30;13.10;;;;;;;;;;5089787;27;20286;-78
2021/04/25 11:07:46;;;;;;;15.52;13.43;;;;;;;;;;5104224;27;20229;-78
2021/04/25 11:10:19;;;;;;;13.95;12.38;;;;;;;;;;5090628;27;20229;-78
2021/04/25 11:12:48;;;;;;;15.02;12.45;;;;;;;;;;5092645;28;20222;-78
2021/04/25 11:15:55;;;;;;;13.52;12.18;;;;;;;;;;5083965;28;20226;-79
2021/04/25 11:18:46;;;;;;;13.50;11.32;;;;;;;;;;5104483;27;20225;-78
2021/04/25 11:21:51;;;;;;;13.02;11.68;;;;;;;;;;5087497;27;20226;-78
2021/04/25 11:24:37;;;;;;;13.25;11.63;;;;;;;;;;5103711;28;20308;-80
2021/04/25 11:27:07;;;;;;;15.10;11.60;;;;;;;;;;5088380;28;20218;-80
2021/04/25 11:30:03;;;;;;;12.65;11.40;;;;;;;;;;5087235;28;20698;-80
2021/04/25 11:32:36;;;;;;;12.85;11.27;;;;;;;;;;5098174;27;20432;-80
2021/04/25 11:35:13;;;;;;;12.70;11.40;;;;;;;;;;5094044;27;20225;-80
2021/04/25 11:37:42;;;;;;;18.30;12.30;;;;;;;;;;5084693;28;20225;-80
2021/04/25 11:40:10;;;;;;;21.77;19.65;;;;;;;;;;5085309;28;20222;-80
2021/04/25 11:42:47;;;;;;;12.43;10.95;;;;;;;;;;5098279;28;20222;-80
2021/04/25 11:45:21;;;;;;;13.07;11.68;;;;;;;;;;5110980;27;20221;-80
2021/04/25 11:47:50;;;;;;;12.73;11.00;;;;;;;;;;5073397;28;20222;-78
2021/04/25 11:50:19;;;;;;;12.13;10.55;;;;;;;;;;5100927;28;20710;-78
2021/04/25 11:52:47;;;;;;;13.10;11.68;;;;;;;;;;5086961;28;20702;-78
2021/04/25 11:55:16;;;;;;;12.50;11.23;;;;;;;;;;5107744;28;20222;-78
2021/04/25 11:57:46;;;;;;;11.20;10.10;;;;;;;;;;5104249;28;20647;-79
2021/04/25 12:00:16;;;;;;;11.77;9.68;;;;;;;;;;5086989;28;20233;-79
2021/04/25 12:02:55;;;;;;;10.73;9.63;;;;;;;;;;5107575;28;20221;-79
2021/04/25 12:05:24;;;;;;;10.95;9.82;;;;;;;;;;5094478;28;20229;-79
2021/04/25 12:07:53;;;;;;;12.43;10.13;;;;;;;;;;5078544;28;20230;-79
2021/04/25 12:10:29;;;;;;;10.68;9.68;;;;;;;;;;5099394;28;20233;-79
2021/04/25 12:13:16;;;;;;;11.13;9.98;;;;;;;;;;5106444;28;20587;-79
2021/04/25 12:15:50;;;;;;;10.10;9.07;;;;;;;;;;5102029;28;20236;-79
2021/04/25 12:18:20;;;;;;;10.55;9.32;;;;;;;;;;5109875;27;20229;-79
2021/04/25 12:20:48;;;;;;;11.13;10.02;;;;;;;;;;5108014;28;20415;-79
2021/04/25 12:23:18;;;;;;;10.35;9.35;;;;;;;;;;5109818;27;20225;-79
2021/04/25 12:25:46;;;;;;;9.73;8.80;;;;;;;;;;5065506;28;20245;-79
2021/04/25 12:28:14;;;;;;;9.43;8.18;;;;;;;;;;5085247;27;20230;-79
2021/04/25 12:30:45;;;;;;;10.15;9.00;;;;;;;;;;5077811;28;20244;-79
2021/04/25 12:33:15;;;;;;;10.70;9.60;;;;;;;;;;5108442;27;20229;-79
2021/04/25 12:35:45;;;;;;;10.10;9.10;;;;;;;;;;5108529;28;20699;-79
2021/04/25 12:38:21;;;;;;;9.65;8.75;;;;;;;;;;5107675;27;20225;-79
2021/04/25 12:40:55;;;;;;;9.02;8.27;;;;;;;;;;5092075;28;20256;-79
2021/04/25 12:43:22;;;;;;;8.98;8.05;;;;;;;;;;5071854;28;20230;-79
2021/04/25 12:45:50;;;;;;;9.43;8.63;;;;;;;;;;5099898;28;20232;-79
2021/04/25 12:48:22;;;;;;;9.45;8.55;;;;;;;;;;5079792;28;20225;-79
2021/04/25 12:51:15;;;;;;;9.82;8.82;;;;;;;;;;5102776;28;20233;-79
2021/04/25 12:53:46;;;;;;;10.25;8.95;;;;;;;;;;5100346;27;20222;-79
2021/04/25 12:56:27;;;;;;;9.57;8.65;;;;;;;;;;5095980;27;20244;-78
2021/04/25 12:58:59;;;;;;;9.48;8.57;;;;;;;;;;5099426;28;20248;-79
2021/04/25 13:01:27;;;;;;;9.48;8.57;;;;;;;;;;5105989;28;20225;-79
2021/04/25 13:03:55;;;;;;;8.55;7.75;;;;;;;;;;5090605;27;20233;-79
2021/04/25 13:06:26;;;;;;;8.88;7.97;;;;;;;;;;5076758;28;20241;-79
2021/04/25 13:08:54;;;;;;;9.13;8.23;;;;;;;;;;5073070;28;20230;-79
2021/04/25 13:11:35;;;;;;;9.45;7.82;;;;;;;;;;5087610;28;20606;-79
2021/04/25 13:14:07;;;;;;;10.07;8.02;;;;;;;;;;5085154;27;20279;-79
2021/04/25 13:16:35;;;;;;;8.93;8.05;;;;;;;;;;5100764;28;20232;-79
2021/04/25 13:19:04;;;;;;;9.07;8.27;;;;;;;;;;5098104;28;20619;-79
2021/04/25 13:21:43;;;;;;;8.65;7.75;;;;;;;;;;5110403;28;20251;-79
2021/04/25 13:24:17;;;;;;;8.02;7.32;;;;;;;;;;5090723;28;20222;-79
2021/04/25 13:26:45;;;;;;;8.77;7.88;;;;;;;;;;5086858;28;20391;-79
2021/04/25 13:29:16;;;;;;;9.25;8.05;;;;;;;;;;5098295;27;20229;-79
2021/04/25 13:31:44;;;;;;;9.02;8.18;;;;;;;;;;5087810;28;20225;-79
2021/04/25 13:34:12;;;;;;;8.55;7.75;;;;;;;;;;5088586;28;20222;-79
2021/04/25 13:36:42;;;;;;;9.00;8.07;;;;;;;;;;5081965;28;20221;-79
2021/04/25 13:39:13;;;;;;;8.93;8.05;;;;;;;;;;5083183;28;20730;-79
2021/04/25 13:41:42;;;;;;;9.13;8.20;;;;;;;;;;5103871;28;20233;-79
2021/04/25 13:44:10;;;;;;;9.55;6.78;;;;;;;;;;5082116;27;20224;-80
2021/04/25 13:46:38;;;;;;;9.15;7.35;;;;;;;;;;5101060;28;20229;-79
2021/04/25 13:49:07;;;;;;;8.60;7.72;;;;;;;;;;5093269;28;20229;-79
2021/04/25 13:51:35;;;;;;;8.18;7.43;;;;;;;;;;5079756;28;20222;-79
2021/04/25 13:54:05;;;;;;;9.80;8.90;;;;;;;;;;5093582;28;20226;-79
2021/04/25 13:56:32;;;;;;;9.23;7.63;;;;;;;;;;5071260;28;20230;-79
2021/04/25 13:59:00;;;;;;;8.70;7.90;;;;;;;;;;5093091;28;20222;-80
2021/04/25 14:01:28;;;;;;;7.78;7.07;;;;;;;;;;5092962;28;20612;-79
2021/04/25 14:03:56;;;;;;;8.18;7.35;;;;;;;;;;5092472;28;20237;-79
2021/04/25 14:06:23;;;;;;;7.38;6.78;;;;;;;;;;5091986;28;20606;-79
2021/04/25 14:08:59;;;;;;;8.23;6.57;;;;;;;;;;5093050;28;20229;-79
2021/04/25 14:11:28;;;;;;;7.68;6.97;;;;;;;;;;5093935;28;20222;-79
2021/04/25 14:13:59;;;;;;;7.90;7.10;;;;;;;;;;5078536;28;20218;-79
2021/04/25 14:16:28;;;;;;;7.93;7.20;;;;;;;;;;5097361;28;20230;-79
2021/04/25 14:18:56;;;;;;;8.02;7.22;;;;;;;;;;5104735;28;20222;-79
2021/04/25 14:21:25;;;;;;;7.53;6.72;;;;;;;;;;5101614;28;20222;-79
2021/04/25 14:23:53;;;;;;;8.63;6.90;;;;;;;;;;5096824;28;20241;-79
2021/04/25 14:26:21;;;;;;;7.40;6.70;;;;;;;;;;5098025;28;20242;-79
2021/04/25 14:28:49;;;;;;;6.63;6.03;;;;;;;;;;5076949;28;20245;-79
2021/04/25 14:31:18;;;;;;;7.00;6.30;;;;;;;;;;5093335;28;20233;-79
2021/04/25 14:33:45;;;;;;;9.50;6.90;;;;;;;;;;5091878;28;20221;-79
2021/04/25 14:36:14;;;;;;;7.40;6.70;;;;;;;;;;5090209;27;20233;-79
2021/04/25 14:38:45;;;;;;;7.93;6.30;;;;;;;;;;5075447;28;20225;-79
2021/04/25 14:41:18;;;;;;;6.57;5.97;;;;;;;;;;5088143;28;20233;-79
2021/04/25 14:43:57;;;;;;;6.03;5.45;;;;;;;;;;5088081;28;20706;-79
2021/04/25 14:46:24;;;;;;;7.07;6.47;;;;;;;;;;5077574;28;20605;-79
2021/04/25 14:48:52;;;;;;;6.88;6.10;;;;;;;;;;5067396;28;20711;-79
2021/04/25 14:51:20;;;;;;;6.70;6.07;;;;;;;;;;5089670;28;20221;-79